createdAt,value
2018-06-24T00:00:06.265Z,49.0626
2018-06-24T00:01:12.084Z,49.7311
2018-06-24T00:02:17.240Z,49.0626
2018-06-24T00:03:22.687Z,49.4801
2018-06-24T00:04:28.483Z,49.7311
2018-06-24T00:05:33.637Z,48.8116
2018-06-24T00:06:39.170Z,48.8116
2018-06-24T00:07:44.359Z,49.9821
2018-06-24T00:08:49.809Z,49.8156
2018-06-24T00:09:55.516Z,49.7311
2018-06-24T00:11:00.960Z,49.9821
2018-06-24T00:12:06.120Z,49.9821
2018-06-24T00:13:11.260Z,50.4841
2018-06-24T00:14:16.553Z,50.2331
2018-06-24T00:15:21.554Z,49.7311
2018-06-24T00:16:27.244Z,50.2331
2018-06-24T00:17:32.684Z,49.9821
2018-06-24T00:18:38.085Z,49.9821
2018-06-24T00:19:42.675Z,49.0626
2018-06-24T00:20:47.564Z,49.9821
2018-06-24T00:21:53.262Z,49.5646
2018-06-24T00:22:58.709Z,49.9821
2018-06-24T00:24:02.455Z,50.2331
2018-06-24T00:25:08.020Z,49.8156
2018-06-24T00:26:12.927Z,50.2331
2018-06-24T00:27:18.090Z,50.9862
2018-06-24T00:28:23.581Z,49.8156
2018-06-24T00:29:28.748Z,50.7352
2018-06-24T00:30:34.591Z,50.4841
2018-06-24T00:31:39.749Z,49.9821
2018-06-24T00:32:44.921Z,50.7352
2018-06-24T00:33:50.344Z,50.2331
2018-06-24T00:34:55.509Z,50.7352
2018-06-24T00:36:00.671Z,50.4841
2018-06-24T00:37:06.610Z,50.7352
2018-06-24T00:38:12.067Z,50.7352
2018-06-24T00:39:17.529Z,50.7352
2018-06-24T00:40:23.327Z,50.7352
2018-06-24T00:41:28.483Z,50.7352
2018-06-24T00:42:33.880Z,51.4882
2018-06-24T00:43:39.323Z,51.4882
2018-06-24T00:44:44.768Z,52.2413
2018-06-24T00:45:50.166Z,50.9862
2018-06-24T00:46:55.067Z,52.1567
2018-06-24T00:47:59.653Z,51.7393
2018-06-24T00:49:04.774Z,51.7393
2018-06-24T00:50:09.932Z,51.9903
2018-06-24T00:51:15.376Z,51.9903
2018-06-24T00:52:20.601Z,51.9903
2018-06-24T00:53:26.051Z,52.2413
2018-06-24T00:54:31.629Z,52.6588
2018-06-24T00:55:36.804Z,51.7393
2018-06-24T00:56:41.686Z,52.6588
2018-06-24T00:57:47.196Z,51.7393
2018-06-24T00:58:52.096Z,51.9903
2018-06-24T00:59:57.550Z,51.9903
2018-06-24T01:01:03.256Z,52.6588
2018-06-24T01:02:08.704Z,51.7393
2018-06-24T01:03:14.177Z,52.6588
2018-06-24T01:04:19.964Z,53.1608
2018-06-24T01:05:24.843Z,52.9124
2018-06-24T01:06:30.580Z,52.6588
2018-06-24T01:07:36.017Z,53.1608
2018-06-24T01:08:41.202Z,53.1608
2018-06-24T01:09:45.925Z,53.1608
2018-06-24T01:10:50.809Z,53.1608
2018-06-24T01:11:56.280Z,52.6588
2018-06-24T01:13:01.717Z,53.4118
2018-06-24T01:14:06.040Z,53.4118
2018-06-24T01:15:11.204Z,53.6629
2018-06-24T01:16:16.778Z,53.1608
2018-06-24T01:17:21.664Z,53.9165
2018-06-24T01:18:27.930Z,53.1608
2018-06-24T01:19:33.149Z,54.1649
2018-06-24T01:20:38.306Z,53.9165
2018-06-24T01:21:43.819Z,52.6588
2018-06-24T01:22:48.981Z,53.1608
2018-06-24T01:23:54.420Z,53.1608
2018-06-24T01:24:59.844Z,53.4118
2018-06-24T01:26:05.007Z,54.6696
2018-06-24T01:27:09.880Z,54.6696
2018-06-24T01:28:14.833Z,54.6696
2018-06-24T01:29:20.268Z,53.9165
2018-06-24T01:30:26.726Z,54.6696
2018-06-24T01:31:31.910Z,54.1649
2018-06-24T01:32:37.358Z,54.836
2018-06-24T01:33:42.218Z,55.0871
2018-06-24T01:34:46.824Z,54.6696
2018-06-24T01:35:52.264Z,54.6696
2018-06-24T01:36:58.110Z,55.0871
2018-06-24T01:38:02.440Z,54.836
2018-06-24T01:39:07.607Z,54.4159
2018-06-24T01:40:13.041Z,55.3381
2018-06-24T01:41:18.201Z,54.6696
2018-06-24T01:42:23.652Z,54.6696
2018-06-24T01:43:29.265Z,55.3381
2018-06-24T01:44:34.718Z,54.918
2018-06-24T01:45:39.866Z,54.4159
2018-06-24T01:46:45.014Z,55.0871
2018-06-24T01:47:50.206Z,55.5891
2018-06-24T01:48:55.620Z,55.0871
2018-06-24T01:50:00.795Z,54.918
2018-06-24T01:51:06.235Z,55.0871
2018-06-24T01:52:11.352Z,55.3381
2018-06-24T01:53:16.813Z,54.6696
2018-06-24T01:54:21.986Z,54.918
2018-06-24T01:55:42.152Z,55.3381
2018-06-24T01:56:47.574Z,55.3381
2018-06-24T01:57:52.995Z,55.0871
2018-06-24T01:58:58.140Z,55.0871
2018-06-24T02:00:03.038Z,55.5891
2018-06-24T02:01:08.045Z,55.8401
2018-06-24T02:02:12.931Z,56.2576
2018-06-24T02:03:17.829Z,55.5891
2018-06-24T02:04:22.683Z,55.3381
2018-06-24T02:05:27.855Z,55.0871
2018-06-24T02:06:33.818Z,55.3381
2018-06-24T02:07:38.414Z,55.3381
2018-06-24T02:08:43.857Z,55.0871
2018-06-24T02:09:49.692Z,55.5891
2018-06-24T02:10:54.856Z,55.0871
2018-06-24T02:12:00.292Z,55.0871
2018-06-24T02:13:05.823Z,55.5891
2018-06-24T02:14:10.709Z,55.0871
2018-06-24T02:15:15.890Z,54.918
2018-06-24T02:16:21.745Z,55.3381
2018-06-24T02:17:27.189Z,55.0871
2018-06-24T02:18:32.716Z,55.0871
2018-06-24T02:19:37.887Z,55.3381
2018-06-24T02:20:43.094Z,55.3381
2018-06-24T02:21:48.781Z,55.3381
2018-06-24T02:22:54.227Z,56.0066
2018-06-24T02:23:59.698Z,55.5891
2018-06-24T02:25:04.807Z,55.5891
2018-06-24T02:26:09.980Z,54.6696
2018-06-24T02:27:15.135Z,55.3381
2018-06-24T02:28:20.424Z,54.836
2018-06-24T02:29:25.304Z,54.6696
2018-06-24T02:30:31.011Z,55.0871
2018-06-24T02:31:36.542Z,55.0871
2018-06-24T02:32:41.716Z,55.3381
2018-06-24T02:33:47.295Z,55.3381
2018-06-24T02:34:52.185Z,56.0066
2018-06-24T02:35:57.345Z,55.3381
2018-06-24T02:37:03.192Z,56.0066
2018-06-24T02:38:08.630Z,55.5891
2018-06-24T02:39:13.803Z,55.5891
2018-06-24T02:40:18.629Z,55.8401
2018-06-24T02:41:23.789Z,55.8401
2018-06-24T02:42:29.494Z,56.0066
2018-06-24T02:43:34.371Z,56.5086
2018-06-24T02:44:39.234Z,57.0107
2018-06-24T02:45:45.073Z,57.0107
2018-06-24T02:46:50.237Z,56.0066
2018-06-24T02:47:55.674Z,56.5086
2018-06-24T02:49:01.368Z,56.0066
2018-06-24T02:50:06.260Z,56.2576
2018-06-24T02:51:11.442Z,56.0066
2018-06-24T02:52:16.968Z,56.0066
2018-06-24T02:53:22.154Z,55.8401
2018-06-24T02:54:27.704Z,56.0066
2018-06-24T02:55:32.880Z,56.0066
2018-06-24T02:56:38.326Z,55.5891
2018-06-24T02:57:43.483Z,56.0066
2018-06-24T02:58:48.673Z,56.0066
2018-06-24T02:59:54.106Z,55.5891
2018-06-24T03:00:59.328Z,56.5086
2018-06-24T03:02:04.518Z,55.3381
2018-06-24T03:03:09.390Z,55.3381
2018-06-24T03:04:15.148Z,55.5891
2018-06-24T03:05:20.037Z,56.0066
2018-06-24T03:06:24.366Z,56.2576
2018-06-24T03:07:29.744Z,55.5891
2018-06-24T03:08:34.919Z,56.0066
2018-06-24T03:09:40.345Z,56.5086
2018-06-24T03:10:45.780Z,56.5086
2018-06-24T03:11:50.671Z,55.8401
2018-06-24T03:12:56.244Z,55.8401
2018-06-24T03:14:01.415Z,55.5891
2018-06-24T03:15:05.733Z,55.3381
2018-06-24T03:16:11.166Z,55.5891
2018-06-24T03:17:16.335Z,55.3381
2018-06-24T03:18:21.238Z,56.5086
2018-06-24T03:19:26.375Z,54.6696
2018-06-24T03:20:31.282Z,56.0066
2018-06-24T03:21:37.000Z,55.8401
2018-06-24T03:22:42.163Z,55.5891
2018-06-24T03:23:47.055Z,55.8401
2018-06-24T03:24:53.213Z,55.5891
2018-06-24T03:25:58.386Z,55.8401
2018-06-24T03:27:03.279Z,55.8401
2018-06-24T03:28:08.765Z,56.5086
2018-06-24T03:29:13.931Z,56.0066
2018-06-24T03:30:19.379Z,56.5086
2018-06-24T03:31:24.824Z,55.8401
2018-06-24T03:32:29.991Z,55.8401
2018-06-24T03:33:35.780Z,56.5086
2018-06-24T03:34:40.942Z,57.0107
2018-06-24T03:35:46.102Z,56.0066
2018-06-24T03:36:52.061Z,56.7597
2018-06-24T03:37:57.225Z,56.2576
2018-06-24T03:39:02.603Z,56.2576
2018-06-24T03:40:07.920Z,56.5086
2018-06-24T03:41:12.939Z,56.0066
2018-06-24T03:42:18.115Z,56.5086
2018-06-24T03:43:23.523Z,56.7597
2018-06-24T03:44:28.404Z,56.5086
2018-06-24T03:45:33.821Z,57.0107
2018-06-24T03:46:38.710Z,57.0107
2018-06-24T03:47:44.152Z,56.7597
2018-06-24T03:48:49.272Z,57.4308
2018-06-24T03:49:54.713Z,58.1839
2018-06-24T03:50:59.880Z,57.9328
2018-06-24T03:52:05.436Z,57.9328
2018-06-24T03:53:10.891Z,57.4308
2018-06-24T03:54:16.095Z,57.2617
2018-06-24T03:55:21.607Z,57.6818
2018-06-24T03:56:26.769Z,57.0107
2018-06-24T03:57:32.684Z,57.2617
2018-06-24T03:58:37.869Z,57.9328
2018-06-24T03:59:43.036Z,57.6818
2018-06-24T04:00:48.764Z,57.2617
2018-06-24T04:01:53.927Z,58.4349
2018-06-24T04:02:59.415Z,57.9328
2018-06-24T04:04:05.123Z,56.5086
2018-06-24T04:05:10.577Z,57.2617
2018-06-24T04:06:15.731Z,56.7597
2018-06-24T04:07:20.880Z,56.7597
2018-06-24T04:08:26.033Z,57.0107
2018-06-24T04:09:31.103Z,57.6818
2018-06-24T04:10:36.276Z,57.2617
2018-06-24T04:11:41.433Z,57.0107
2018-06-24T04:12:46.856Z,55.8401
2018-06-24T04:13:52.027Z,56.7597
2018-06-24T04:14:57.475Z,56.2576
2018-06-24T04:16:03.166Z,56.2576
2018-06-24T04:17:07.758Z,56.5086
2018-06-24T04:18:13.191Z,56.2576
2018-06-24T04:19:18.612Z,57.0107
2018-06-24T04:20:24.081Z,57.2617
2018-06-24T04:21:29.930Z,57.5127
2018-06-24T04:22:35.388Z,57.2617
2018-06-24T04:23:40.256Z,56.5086
2018-06-24T04:24:46.052Z,57.5127
2018-06-24T04:25:51.831Z,57.5127
2018-06-24T04:26:57.319Z,57.0107
2018-06-24T04:28:02.273Z,57.7637
2018-06-24T04:29:06.872Z,56.5086
2018-06-24T04:30:12.044Z,57.0107
2018-06-24T04:31:17.844Z,57.0107
2018-06-24T04:32:23.289Z,56.2576
2018-06-24T04:33:29.049Z,56.2576
2018-06-24T04:34:34.488Z,56.7597
2018-06-24T04:35:39.372Z,56.5086
2018-06-24T04:36:44.669Z,55.8401
2018-06-24T04:37:50.111Z,56.7597
2018-06-24T04:38:55.566Z,55.5891
2018-06-24T04:40:01.092Z,55.169
2018-06-24T04:41:05.973Z,55.5891
2018-06-24T04:42:11.132Z,55.5891
2018-06-24T04:43:16.617Z,56.0066
2018-06-24T04:44:21.777Z,55.8401
2018-06-24T04:45:41.844Z,56.2576
2018-06-24T04:46:47.011Z,55.8401
2018-06-24T04:47:52.215Z,55.6737
2018-06-24T04:48:58.010Z,55.4226
2018-06-24T04:50:02.890Z,55.4226
2018-06-24T04:51:07.502Z,54.918
2018-06-24T04:52:12.779Z,55.8401
2018-06-24T04:53:17.677Z,55.6737
2018-06-24T04:54:23.148Z,55.169
2018-06-24T04:55:28.496Z,55.169
2018-06-24T04:56:33.675Z,55.169
2018-06-24T04:57:38.681Z,55.4226
2018-06-24T04:58:44.135Z,54.918
2018-06-24T04:59:49.582Z,54.918
2018-06-24T05:00:55.371Z,55.4226
2018-06-24T05:02:00.818Z,55.4226
2018-06-24T05:03:06.260Z,55.4226
2018-06-24T05:04:11.953Z,55.8401
2018-06-24T05:05:17.403Z,56.7597
2018-06-24T05:06:22.921Z,56.7597
2018-06-24T05:07:28.676Z,55.922
2018-06-24T05:08:34.123Z,56.2576
2018-06-24T05:09:39.673Z,55.4226
2018-06-24T05:10:44.840Z,55.922
2018-06-24T05:11:50.287Z,54.918
2018-06-24T05:12:55.433Z,55.6737
2018-06-24T05:14:00.585Z,55.6737
2018-06-24T05:15:05.476Z,55.6737
2018-06-24T05:16:10.717Z,55.922
2018-06-24T05:17:15.577Z,55.6737
2018-06-24T05:18:20.474Z,55.922
2018-06-24T05:19:25.612Z,54.6696
2018-06-24T05:20:30.832Z,55.4226
2018-06-24T05:21:36.532Z,54.918
2018-06-24T05:22:41.701Z,53.9165
2018-06-24T05:23:47.140Z,55.169
2018-06-24T05:24:52.287Z,54.4159
2018-06-24T05:25:57.475Z,55.4226
2018-06-24T05:27:02.347Z,55.6737
2018-06-24T05:28:07.886Z,54.918
2018-06-24T05:29:13.322Z,55.6737
2018-06-24T05:30:19.595Z,55.4226
2018-06-24T05:31:24.900Z,54.918
2018-06-24T05:32:30.061Z,55.922
2018-06-24T05:33:36.052Z,54.918
2018-06-24T05:34:41.504Z,54.6696
2018-06-24T05:35:46.675Z,55.4226
2018-06-24T05:36:52.094Z,55.169
2018-06-24T05:37:57.558Z,54.918
2018-06-24T05:39:02.180Z,55.4226
2018-06-24T05:40:07.025Z,53.9165
2018-06-24T05:41:12.489Z,53.9165
2018-06-24T05:42:17.363Z,54.918
2018-06-24T05:43:23.150Z,55.169
2018-06-24T05:44:28.603Z,54.918
2018-06-24T05:45:34.296Z,54.6696
2018-06-24T05:46:39.756Z,54.918
2018-06-24T05:47:45.201Z,54.918
2018-06-24T05:48:50.877Z,54.6696
2018-06-24T05:49:56.584Z,54.4159
2018-06-24T05:51:01.751Z,54.6696
2018-06-24T05:52:07.463Z,54.4159
2018-06-24T05:53:12.893Z,54.6696
2018-06-24T05:54:18.510Z,53.9165
2018-06-24T05:55:24.443Z,54.6696
2018-06-24T05:56:29.615Z,54.918
2018-06-24T05:57:35.034Z,55.169
2018-06-24T05:58:40.488Z,54.918
2018-06-24T05:59:45.653Z,55.169
2018-06-24T06:00:51.363Z,55.169
2018-06-24T06:01:56.570Z,54.918
2018-06-24T06:03:01.700Z,54.1649
2018-06-24T06:04:06.941Z,54.6696
2018-06-24T06:05:11.824Z,54.4159
2018-06-24T06:06:17.271Z,54.918
2018-06-24T06:07:22.503Z,55.169
2018-06-24T06:08:27.693Z,54.6696
2018-06-24T06:09:32.723Z,54.4159
2018-06-24T06:10:38.189Z,53.9165
2018-06-24T06:11:43.394Z,54.1649
2018-06-24T06:12:49.121Z,55.4226
2018-06-24T06:13:54.558Z,54.4159
2018-06-24T06:14:59.748Z,53.9165
2018-06-24T06:16:05.041Z,54.4159
2018-06-24T06:17:10.606Z,53.9165
2018-06-24T06:18:16.072Z,54.6696
2018-06-24T06:19:20.930Z,54.6696
2018-06-24T06:20:26.110Z,54.6696
2018-06-24T06:21:31.356Z,55.4226
2018-06-24T06:22:35.683Z,53.9165
2018-06-24T06:23:40.550Z,55.4226
2018-06-24T06:24:46.366Z,54.6696
2018-06-24T06:25:50.944Z,54.4159
2018-06-24T06:26:56.107Z,54.918
2018-06-24T06:28:01.768Z,54.1649
2018-06-24T06:29:06.630Z,54.918
2018-06-24T06:30:12.178Z,53.4118
2018-06-24T06:31:17.445Z,54.1649
2018-06-24T06:32:22.605Z,53.6629
2018-06-24T06:33:28.123Z,53.6629
2018-06-24T06:34:33.299Z,53.2454
2018-06-24T06:35:38.170Z,54.4159
2018-06-24T06:36:43.853Z,54.6696
2018-06-24T06:37:49.312Z,54.6696
2018-06-24T06:38:54.470Z,54.6696
2018-06-24T06:40:00.316Z,53.9165
2018-06-24T06:41:05.478Z,54.4159
2018-06-24T06:42:10.639Z,53.9165
2018-06-24T06:43:16.069Z,54.4159
2018-06-24T06:44:21.528Z,54.6696
2018-06-24T06:45:42.738Z,55.4226
2018-06-24T06:46:49.062Z,54.918
2018-06-24T06:47:54.521Z,54.1649
2018-06-24T06:49:00.214Z,53.2454
2018-06-24T06:50:05.096Z,53.9165
2018-06-24T06:51:09.993Z,54.4159
2018-06-24T06:52:15.603Z,53.2454
2018-06-24T06:53:20.782Z,53.9165
2018-06-24T06:54:40.726Z,53.4118
2018-06-24T06:55:46.169Z,53.9165
2018-06-24T06:56:51.051Z,53.9165
2018-06-24T06:57:57.058Z,55.169
2018-06-24T06:59:02.536Z,54.4159
2018-06-24T07:00:07.552Z,54.918
2018-06-24T07:01:13.270Z,54.1649
2018-06-24T07:02:17.864Z,53.6629
2018-06-24T07:03:22.887Z,53.9165
2018-06-24T07:04:28.217Z,53.9165
2018-06-24T07:05:32.836Z,54.1649
2018-06-24T07:06:38.254Z,54.1649
2018-06-24T07:07:42.843Z,53.9165
2018-06-24T07:08:47.999Z,53.2454
2018-06-24T07:09:53.514Z,53.6629
2018-06-24T07:10:58.672Z,53.6629
2018-06-24T07:12:03.845Z,53.2454
2018-06-24T07:13:08.967Z,53.2454
2018-06-24T07:14:14.302Z,53.4964
2018-06-24T07:15:19.452Z,53.2454
2018-06-24T07:16:24.724Z,52.9944
2018-06-24T07:17:29.050Z,53.4964
2018-06-24T07:18:34.280Z,54.4159
2018-06-24T07:19:39.466Z,53.4964
2018-06-24T07:20:44.338Z,53.6629
2018-06-24T07:21:50.073Z,53.4118
2018-06-24T07:22:55.237Z,53.2454
2018-06-24T07:24:00.694Z,52.7433
2018-06-24T07:25:05.829Z,53.9165
2018-06-24T07:26:11.007Z,53.6629
2018-06-24T07:27:16.163Z,52.9944
2018-06-24T07:28:21.958Z,53.2454
2018-06-24T07:29:25.989Z,52.7433
2018-06-24T07:30:31.141Z,52.7433
2018-06-24T07:31:36.009Z,51.9903
2018-06-24T07:32:41.194Z,52.4923
2018-06-24T07:33:47.738Z,52.9944
2018-06-24T07:34:53.250Z,53.4118
2018-06-24T07:35:58.699Z,52.9944
2018-06-24T07:37:02.986Z,52.9944
2018-06-24T07:38:07.874Z,52.4923
2018-06-24T07:39:12.690Z,53.2454
2018-06-24T07:40:18.085Z,53.2454
2018-06-24T07:41:23.239Z,52.9944
2018-06-24T07:42:28.832Z,52.4923
2018-06-24T07:43:34.281Z,52.9944
2018-06-24T07:44:39.150Z,52.9944
2018-06-24T07:45:44.267Z,53.2454
2018-06-24T07:46:49.449Z,53.9165
2018-06-24T07:47:54.650Z,53.4118
2018-06-24T07:49:00.069Z,53.6629
2018-06-24T07:50:05.229Z,53.4118
2018-06-24T07:51:10.674Z,53.4118
2018-06-24T07:52:16.128Z,53.4118
2018-06-24T07:53:21.287Z,52.7433
2018-06-24T07:54:41.075Z,52.7433
2018-06-24T07:55:46.225Z,52.4923
2018-06-24T07:56:51.674Z,53.2454
2018-06-24T07:57:57.469Z,52.7433
2018-06-24T07:59:02.081Z,52.2413
2018-06-24T08:00:06.963Z,53.4118
2018-06-24T08:01:12.190Z,51.9903
2018-06-24T08:02:17.636Z,52.7433
2018-06-24T08:03:22.601Z,52.9944
2018-06-24T08:04:28.205Z,53.4118
2018-06-24T08:05:33.369Z,52.4923
2018-06-24T08:06:38.788Z,52.7433
2018-06-24T08:07:43.700Z,53.4118
2018-06-24T08:08:48.860Z,53.9165
2018-06-24T08:09:54.269Z,53.9165
2018-06-24T08:10:59.146Z,53.2454
2018-06-24T08:12:04.622Z,52.4923
2018-06-24T08:13:09.746Z,53.2454
2018-06-24T08:14:15.230Z,52.7433
2018-06-24T08:15:20.676Z,53.2454
2018-06-24T08:16:26.079Z,52.9944
2018-06-24T08:17:31.514Z,53.2454
2018-06-24T08:18:37.239Z,53.4118
2018-06-24T08:19:42.144Z,53.4118
2018-06-24T08:20:47.590Z,52.9944
2018-06-24T08:21:53.282Z,53.2454
2018-06-24T08:22:58.730Z,52.9944
2018-06-24T08:24:03.899Z,52.9944
2018-06-24T08:25:08.869Z,52.9944
2018-06-24T08:26:13.757Z,52.4923
2018-06-24T08:27:19.249Z,53.2454
2018-06-24T08:28:24.220Z,52.9944
2018-06-24T08:29:29.388Z,53.2454
2018-06-24T08:30:35.004Z,53.6629
2018-06-24T08:31:39.384Z,52.4923
2018-06-24T08:32:44.675Z,53.2454
2018-06-24T08:33:50.371Z,52.4923
2018-06-24T08:34:55.553Z,52.7433
2018-06-24T08:36:01.009Z,53.6629
2018-06-24T08:37:06.713Z,52.7433
2018-06-24T08:38:11.916Z,52.2413
2018-06-24T08:39:17.355Z,52.2413
2018-06-24T08:40:22.600Z,52.2413
2018-06-24T08:41:27.766Z,51.9903
2018-06-24T08:42:33.275Z,52.2413
2018-06-24T08:43:38.452Z,52.9944
2018-06-24T08:44:43.053Z,51.9903
2018-06-24T08:45:48.834Z,52.4923
2018-06-24T08:46:54.291Z,52.4923
2018-06-24T08:47:59.441Z,53.4118
2018-06-24T08:49:05.347Z,53.1608
2018-06-24T08:50:10.508Z,52.4923
2018-06-24T08:51:15.663Z,52.4923
2018-06-24T08:52:20.242Z,52.4923
2018-06-24T08:53:25.677Z,52.9944
2018-06-24T08:54:30.692Z,52.7433
2018-06-24T08:55:36.142Z,51.7393
2018-06-24T08:56:41.236Z,51.7393
2018-06-24T08:57:47.021Z,52.9944
2018-06-24T08:58:52.200Z,52.9944
2018-06-24T08:59:57.364Z,52.2413
2018-06-24T09:01:02.501Z,52.7433
2018-06-24T09:02:07.660Z,51.4882
2018-06-24T09:03:12.829Z,51.9903
2018-06-24T09:04:18.521Z,51.7393
2018-06-24T09:05:23.977Z,52.2413
2018-06-24T09:06:29.354Z,52.4923
2018-06-24T09:07:34.538Z,52.2413
2018-06-24T09:08:39.984Z,51.7393
2018-06-24T09:09:45.682Z,52.9944
2018-06-24T09:10:51.155Z,52.2413
2018-06-24T09:11:56.045Z,51.7393
2018-06-24T09:13:01.468Z,52.9124
2018-06-24T09:14:06.344Z,52.7433
2018-06-24T09:15:11.234Z,53.1608
2018-06-24T09:16:16.645Z,52.2413
2018-06-24T09:17:21.541Z,52.7433
2018-06-24T09:18:41.596Z,52.7433
2018-06-24T09:19:46.762Z,52.2413
2018-06-24T09:20:52.203Z,52.7433
2018-06-24T09:21:57.327Z,52.2413
2018-06-24T09:23:02.308Z,52.4923
2018-06-24T09:24:06.906Z,51.7393
2018-06-24T09:25:12.044Z,52.2413
2018-06-24T09:26:17.494Z,52.4923
2018-06-24T09:27:22.112Z,52.4923
2018-06-24T09:28:42.271Z,51.7393
2018-06-24T09:29:47.427Z,51.9903
2018-06-24T09:30:53.545Z,52.4923
2018-06-24T09:31:58.683Z,52.2413
2018-06-24T09:33:03.896Z,52.2413
2018-06-24T09:34:09.035Z,52.7433
2018-06-24T09:35:14.540Z,52.2413
2018-06-24T09:36:19.714Z,52.7433
2018-06-24T09:37:24.861Z,52.2413
2018-06-24T09:38:29.743Z,51.9903
2018-06-24T09:39:35.596Z,52.4923
2018-06-24T09:40:41.034Z,52.7433
2018-06-24T09:41:45.922Z,52.7433
2018-06-24T09:42:51.729Z,52.2413
2018-06-24T09:43:56.640Z,51.7393
2018-06-24T09:45:02.103Z,51.9903
2018-06-24T09:46:06.679Z,52.2413
2018-06-24T09:47:11.607Z,53.9165
2018-06-24T09:48:17.043Z,51.7393
2018-06-24T09:49:22.732Z,52.2413
2018-06-24T09:50:28.220Z,53.4118
2018-06-24T09:51:34.174Z,52.9124
2018-06-24T09:52:39.063Z,53.1608
2018-06-24T09:53:44.220Z,52.9124
2018-06-24T09:54:49.659Z,53.1608
2018-06-24T09:55:54.832Z,52.9124
2018-06-24T09:57:00.276Z,52.2413
2018-06-24T09:58:05.265Z,52.7433
2018-06-24T09:59:10.433Z,52.2413
2018-06-24T10:00:15.591Z,52.4923
2018-06-24T10:01:20.837Z,52.2413
2018-06-24T10:02:25.727Z,52.7433
2018-06-24T10:03:31.629Z,52.7433
2018-06-24T10:04:37.071Z,52.4923
2018-06-24T10:05:42.673Z,53.4118
2018-06-24T10:06:48.404Z,53.1608
2018-06-24T10:07:53.558Z,52.2413
2018-06-24T10:08:58.428Z,53.1608
2018-06-24T10:10:03.565Z,52.2413
2018-06-24T10:11:09.295Z,52.9124
2018-06-24T10:12:13.971Z,52.7433
2018-06-24T10:13:19.762Z,52.2413
2018-06-24T10:14:24.940Z,52.2413
2018-06-24T10:15:29.815Z,52.7433
2018-06-24T10:16:34.983Z,52.7433
2018-06-24T10:17:40.152Z,52.7433
2018-06-24T10:18:45.301Z,52.4923
2018-06-24T10:19:50.456Z,52.9124
2018-06-24T10:20:55.346Z,52.9124
2018-06-24T10:22:00.865Z,53.1608
2018-06-24T10:23:06.011Z,53.1608
2018-06-24T10:24:10.613Z,52.9124
2018-06-24T10:25:16.342Z,52.4923
2018-06-24T10:26:21.225Z,53.1608
2018-06-24T10:27:40.785Z,52.7433
2018-06-24T10:28:46.225Z,51.7393
2018-06-24T10:29:51.374Z,52.2413
2018-06-24T10:30:56.792Z,52.4923
2018-06-24T10:32:01.679Z,51.9903
2018-06-24T10:33:06.835Z,51.4882
2018-06-24T10:34:12.548Z,52.7433
2018-06-24T10:35:17.424Z,51.7393
2018-06-24T10:36:22.609Z,52.7433
2018-06-24T10:37:28.244Z,52.4923
2018-06-24T10:38:33.111Z,51.7393
2018-06-24T10:39:38.324Z,52.7433
2018-06-24T10:40:43.491Z,52.7433
2018-06-24T10:41:48.087Z,51.7393
2018-06-24T10:42:54.032Z,51.7393
2018-06-24T10:43:58.337Z,52.4923
2018-06-24T10:45:02.662Z,51.7393
2018-06-24T10:46:08.184Z,52.7433
2018-06-24T10:47:13.633Z,52.4923
2018-06-24T10:48:19.093Z,52.4923
2018-06-24T10:49:24.615Z,52.9124
2018-06-24T10:50:29.794Z,52.9124
2018-06-24T10:51:35.717Z,52.9124
2018-06-24T10:52:40.901Z,52.9124
2018-06-24T10:53:46.336Z,52.7433
2018-06-24T10:54:52.142Z,53.4118
2018-06-24T10:55:57.305Z,54.1649
2018-06-24T10:57:02.195Z,52.9124
2018-06-24T10:58:07.327Z,53.1608
2018-06-24T10:59:11.953Z,52.9124
2018-06-24T11:00:17.397Z,52.4923
2018-06-24T11:01:22.243Z,52.9944
2018-06-24T11:02:27.693Z,52.7433
2018-06-24T11:03:33.587Z,52.9944
2018-06-24T11:04:38.813Z,52.9944
2018-06-24T11:05:43.963Z,53.4118
2018-06-24T11:06:49.033Z,52.7433
2018-06-24T11:07:53.934Z,52.7433
2018-06-24T11:08:58.814Z,53.1608
2018-06-24T11:10:04.290Z,52.2413
2018-06-24T11:11:09.737Z,51.9903
2018-06-24T11:12:14.327Z,52.2413
2018-06-24T11:13:19.739Z,51.9903
2018-06-24T11:14:24.914Z,51.4882
2018-06-24T11:15:30.176Z,51.4882
2018-06-24T11:16:36.105Z,51.9903
2018-06-24T11:17:40.982Z,52.9944
2018-06-24T11:18:46.549Z,51.2372
2018-06-24T11:19:52.011Z,51.9903
2018-06-24T11:20:56.897Z,52.2413
2018-06-24T11:22:02.036Z,51.7393
2018-06-24T11:23:07.200Z,51.4882
2018-06-24T11:24:12.089Z,50.5687
2018-06-24T11:25:16.971Z,52.2413
2018-06-24T11:26:22.416Z,51.7393
2018-06-24T11:27:28.135Z,51.4882
2018-06-24T11:28:32.456Z,51.2372
2018-06-24T11:29:37.324Z,51.2372
2018-06-24T11:30:42.264Z,51.2372
2018-06-24T11:31:47.151Z,51.7393
2018-06-24T11:32:52.597Z,51.4882
2018-06-24T11:33:57.547Z,50.0667
2018-06-24T11:35:02.710Z,51.4882
2018-06-24T11:36:07.598Z,52.2413
2018-06-24T11:37:13.024Z,51.2372
2018-06-24T11:38:18.195Z,51.4882
2018-06-24T11:39:23.356Z,51.4882
2018-06-24T11:40:29.700Z,51.9903
2018-06-24T11:41:34.868Z,51.7393
2018-06-24T11:42:40.504Z,51.7393
2018-06-24T11:43:45.678Z,52.4923
2018-06-24T11:44:51.131Z,51.2372
2018-06-24T11:45:57.004Z,50.9862
2018-06-24T11:47:01.897Z,50.7352
2018-06-24T11:48:06.499Z,52.2413
2018-06-24T11:49:11.918Z,50.7352
2018-06-24T11:50:17.088Z,51.4882
2018-06-24T11:51:22.550Z,51.7393
2018-06-24T11:52:27.882Z,51.4882
2018-06-24T11:53:33.313Z,50.7352
2018-06-24T11:54:38.171Z,51.4882
2018-06-24T11:55:43.046Z,50.9862
2018-06-24T11:56:48.510Z,51.4882
2018-06-24T11:57:54.212Z,52.2413
2018-06-24T11:58:59.101Z,51.7393
2018-06-24T12:00:04.561Z,51.7393
2018-06-24T12:01:09.674Z,51.9903
2018-06-24T12:02:14.856Z,50.9862
2018-06-24T12:03:20.017Z,50.9862
2018-06-24T12:04:25.453Z,52.2413
2018-06-24T12:05:30.341Z,52.4923
2018-06-24T12:06:36.195Z,51.7393
2018-06-24T12:07:40.776Z,52.4923
2018-06-24T12:08:45.652Z,50.7352
2018-06-24T12:09:51.704Z,51.7393
2018-06-24T12:10:56.915Z,52.7433
2018-06-24T12:12:02.079Z,51.7393
2018-06-24T12:13:06.922Z,51.7393
2018-06-24T12:14:12.367Z,52.7433
2018-06-24T12:15:17.822Z,52.2413
2018-06-24T12:16:22.950Z,52.9124
2018-06-24T12:17:29.267Z,53.4118
2018-06-24T12:18:34.971Z,52.9124
2018-06-24T12:19:39.858Z,52.4923
2018-06-24T12:20:45.330Z,53.4118
2018-06-24T12:21:50.753Z,53.1608
2018-06-24T12:22:56.201Z,53.4118
2018-06-24T12:24:01.069Z,53.1608
2018-06-24T12:25:06.488Z,53.6629
2018-06-24T12:26:11.365Z,53.1608
2018-06-24T12:27:17.127Z,52.4923
2018-06-24T12:28:22.838Z,53.1608
2018-06-24T12:29:27.990Z,53.6629
2018-06-24T12:30:33.462Z,53.1608
2018-06-24T12:31:38.676Z,54.1649
2018-06-24T12:32:43.304Z,53.6629
2018-06-24T12:33:49.002Z,53.6629
2018-06-24T12:34:54.451Z,53.6629
2018-06-24T12:35:59.329Z,53.6629
2018-06-24T12:37:04.863Z,53.9165
2018-06-24T12:38:10.024Z,54.1649
2018-06-24T12:39:15.194Z,54.1649
2018-06-24T12:40:20.133Z,54.4159
2018-06-24T12:41:25.015Z,54.6696
2018-06-24T12:42:29.960Z,54.6696
2018-06-24T12:43:35.307Z,55.169
2018-06-24T12:44:40.706Z,54.6696
2018-06-24T12:45:46.490Z,54.918
2018-06-24T12:46:52.164Z,54.6696
2018-06-24T12:47:57.621Z,55.5891
2018-06-24T12:49:02.465Z,55.5891
2018-06-24T12:50:07.920Z,56.2576
2018-06-24T12:51:13.136Z,55.5891
2018-06-24T12:52:18.694Z,55.8401
2018-06-24T12:53:23.581Z,55.169
2018-06-24T12:54:29.324Z,55.5891
2018-06-24T12:55:34.172Z,55.3381
2018-06-24T12:56:39.062Z,54.918
2018-06-24T12:57:44.477Z,56.0066
2018-06-24T12:58:50.275Z,56.0066
2018-06-24T12:59:58.428Z,56.0066
2018-06-24T13:01:04.243Z,56.5086
2018-06-24T13:02:09.389Z,56.0066
2018-06-24T13:03:14.849Z,56.0066
2018-06-24T13:04:20.258Z,56.2576
2018-06-24T13:05:25.744Z,56.0066
2018-06-24T13:06:31.367Z,55.8401
2018-06-24T13:07:35.975Z,56.5086
2018-06-24T13:08:40.849Z,56.0066
2018-06-24T13:09:46.320Z,55.5891
2018-06-24T13:10:51.433Z,56.0066
2018-06-24T13:11:56.526Z,55.5891
2018-06-24T13:13:02.189Z,55.3381